Time;durP1;ratioP1;P1;durP2;ratioP2;P2;SDS_P1;SDS_P2;PMS_P1;PMS_P2;Temp;Humidity;BMP_temperature;BMP_pressure;BME280_temperature;BME280_humidity;BME280_pressure;Samples;Min_cycle;Max_cycle;Signal;HPM_P1;HPM_P2
2023/01/24 00:00:59;;;;;;;21.42;13.80;;;5.70;92.10;;;;;;5048916;28;20037;-73
2023/01/24 00:03:25;;;;;;;25.45;16.67;;;5.80;92.00;;;;;;5049845;28;20021;-75
2023/01/24 00:05:50;;;;;;;17.20;11.13;;;5.80;91.60;;;;;;5049527;28;20048;-75
2023/01/24 00:08:22;;;;;;;23.70;16.23;;;5.80;92.50;;;;;;5049544;28;20017;-75
2023/01/24 00:10:49;;;;;;;20.20;13.50;;;5.80;92.00;;;;;;5039593;28;20491;-75
2023/01/24 00:13:15;;;;;;;22.90;15.85;;;5.90;92.10;;;;;;5049691;28;20029;-75
2023/01/24 00:15:41;;;;;;;22.67;16.40;;;5.90;91.60;;;;;;5049107;28;20055;-74
2023/01/24 00:18:07;;;;;;;22.55;14.32;;;5.90;91.10;;;;;;5048657;28;20025;-75
2023/01/24 00:20:33;;;;;;;22.80;15.55;;;5.90;92.40;;;;;;5049166;28;20098;-75
2023/01/24 00:22:58;;;;;;;28.48;16.80;;;5.90;92.10;;;;;;5046522;28;20127;-75
2023/01/24 00:25:24;;;;;;;15.20;10.20;;;5.90;91.70;;;;;;5048633;28;20037;-75
2023/01/24 00:27:50;;;;;;;24.98;15.35;;;5.80;92.90;;;;;;5048977;28;20037;-75
2023/01/24 00:30:15;;;;;;;20.80;14.32;;;5.80;92.30;;;;;;5049492;28;20067;-74
2023/01/24 00:32:41;;;;;;;19.15;12.48;;;5.80;91.70;;;;;;5048902;28;20021;-76
2023/01/24 00:35:07;;;;;;;17.60;10.73;;;5.80;91.40;;;;;;5049505;28;20021;-75
2023/01/24 00:37:33;;;;;;;17.58;12.10;;;5.70;92.20;;;;;;5048908;28;20052;-74
2023/01/24 00:39:58;;;;;;;19.77;12.93;;;5.70;92.90;;;;;;5048790;28;20155;-75
2023/01/24 00:42:24;;;;;;;18.88;12.80;;;5.70;92.00;;;;;;5049606;28;20025;-75
2023/01/24 00:44:50;;;;;;;18.25;11.80;;;5.70;91.20;;;;;;5048908;28;20029;-76
2023/01/24 00:47:15;;;;;;;17.30;11.93;;;5.70;91.10;;;;;;5041962;28;20041;-74
2023/01/24 00:49:41;;;;;;;18.48;12.63;;;5.80;91.80;;;;;;5043372;28;20035;-75
2023/01/24 00:52:07;;;;;;;19.08;13.18;;;5.70;91.20;;;;;;5047200;28;20025;-75
2023/01/24 00:54:32;;;;;;;16.27;10.70;;;5.70;91.90;;;;;;5041925;28;20035;-75
2023/01/24 00:56:58;;;;;;;19.48;13.10;;;5.70;92.80;;;;;;5048692;28;20433;-75
2023/01/24 00:59:24;;;;;;;20.67;14.20;;;5.70;92.00;;;;;;5046913;28;20017;-75
2023/01/24 01:01:49;;;;;;;19.90;12.80;;;5.70;91.50;;;;;;5048482;28;20071;-75
2023/01/24 01:04:15;;;;;;;20.95;13.68;;;5.70;91.20;;;;;;5047533;28;20025;-75
2023/01/24 01:06:41;;;;;;;20.23;13.52;;;5.80;90.90;;;;;;5048258;28;20517;-75
2023/01/24 01:09:08;;;;;;;21.38;14.00;;;5.80;91.20;;;;;;5048748;28;20044;-74
2023/01/24 01:11:33;;;;;;;16.20;11.77;;;5.70;91.40;;;;;;5048808;28;20025;-76
2023/01/24 01:13:59;;;;;;;16.90;11.65;;;5.70;92.00;;;;;;5047036;28;20033;-74
2023/01/24 01:16:25;;;;;;;17.08;11.95;;;5.60;91.60;;;;;;5048773;28;20120;-76
2023/01/24 01:18:54;;;;;;;22.23;14.85;;;5.50;92.20;;;;;;5045627;28;20021;-75
2023/01/24 01:21:21;;;;;;;20.77;13.35;;;5.50;91.90;;;;;;5048790;28;20017;-75
2023/01/24 01:23:47;;;;;;;19.95;12.45;;;5.60;91.80;;;;;;5046970;28;20091;-74
2023/01/24 01:26:16;;;;;;;19.80;11.68;;;5.60;91.40;;;;;;5047801;28;20049;-75
2023/01/24 01:28:42;;;;;;;20.15;13.30;;;5.60;91.70;;;;;;5050413;28;20527;-75
2023/01/24 01:31:07;;;;;;;18.45;13.05;;;5.70;91.40;;;;;;5034518;28;20038;-74
2023/01/24 01:33:33;;;;;;;21.42;12.40;;;5.70;92.00;;;;;;5046573;28;20033;-74
2023/01/24 01:35:59;;;;;;;22.13;15.45;;;5.60;91.90;;;;;;5047855;28;20025;-74
2023/01/24 01:38:27;;;;;;;17.45;11.05;;;5.50;91.80;;;;;;5050100;28;20044;-74
2023/01/24 01:40:54;;;;;;;15.20;10.13;;;5.50;92.40;;;;;;5039679;28;20049;-74
2023/01/24 01:43:23;;;;;;;21.02;13.18;;;5.50;94.40;;;;;;5048306;28;20601;-74
2023/01/24 01:45:50;;;;;;;21.17;14.55;;;5.60;94.30;;;;;;5045827;28;20017;-75
2023/01/24 01:48:34;;;;;;;16.00;10.48;;;5.60;94.80;;;;;;5047859;28;20071;-74
2023/01/24 01:51:12;;;;;;;17.05;9.93;;;5.50;94.30;;;;;;5043241;28;20797;-75
2023/01/24 01:53:48;;;;;;;20.50;13.40;;;5.50;94.80;;;;;;5048592;28;20021;-75
2023/01/24 01:56:25;;;;;;;16.67;11.00;;;5.50;94.80;;;;;;5039227;28;20049;-75
2023/01/24 01:58:52;;;;;;;21.85;14.38;;;5.50;94.40;;;;;;5054263;28;20031;-74
2023/01/24 02:01:18;;;;;;;15.13;9.70;;;5.50;93.70;;;;;;5041781;28;20025;-74
2023/01/24 02:03:51;;;;;;;20.25;12.30;;;5.60;94.30;;;;;;5050781;28;20032;-74
2023/01/24 02:06:32;;;;;;;20.52;13.63;;;5.60;94.10;;;;;;5040478;28;20040;-75
2023/01/24 02:09:00;;;;;;;19.08;12.90;;;5.60;93.20;;;;;;5047211;28;20037;-75
2023/01/24 02:11:39;;;;;;;16.50;9.82;;;5.60;93.20;;;;;;5042438;28;20017;-75
2023/01/24 02:17:09;;;;;;;22.02;14.85;;;5.50;93.50;;;;;;5060901;28;20063;-75
2023/01/24 02:19:54;;;;;;;19.52;13.48;;;5.40;93.40;;;;;;5052033;28;20104;-73
2023/01/24 02:22:25;;;;;;;20.48;12.80;;;5.30;93.20;;;;;;5052104;28;20021;-75
2023/01/24 02:25:29;;;;;;;21.00;13.90;;;5.30;93.40;;;;;;5051032;28;20055;-75
2023/01/24 02:27:55;;;;;;;23.88;14.57;;;5.30;93.50;;;;;;5050961;28;20498;-74
2023/01/24 02:30:21;;;;;;;22.83;15.85;;;5.30;92.90;;;;;;5052162;28;20025;-75
2023/01/24 02:32:46;;;;;;;22.23;14.00;;;5.20;92.50;;;;;;5043851;28;20030;-74
2023/01/24 02:35:27;;;;;;;23.20;14.70;;;5.20;93.00;;;;;;5048541;28;20031;-74
2023/01/24 02:37:55;;;;;;;23.70;15.57;;;5.10;92.90;;;;;;5051192;28;20013;-74
2023/01/24 02:40:21;;;;;;;24.35;16.70;;;5.10;93.30;;;;;;5049739;28;20035;-75
2023/01/24 02:42:47;;;;;;;23.38;15.63;;;5.00;92.90;;;;;;5050050;28;20017;-74
2023/01/24 02:45:25;;;;;;;21.58;13.73;;;5.10;93.80;;;;;;5051398;28;20032;-75
2023/01/24 02:47:53;;;;;;;25.45;17.75;;;5.10;93.80;;;;;;5048810;28;20032;-73
2023/01/24 02:50:21;;;;;;;23.35;15.77;;;5.10;94.10;;;;;;5051138;28;20469;-74
2023/01/24 02:55:31;;;;;;;29.30;18.50;;;5.00;93.30;;;;;;5041588;28;20395;-75
2023/01/24 02:58:07;;;;;;;26.13;18.10;;;5.10;93.70;;;;;;5047462;28;20029;-74
2023/01/24 03:00:42;;;;;;;32.78;17.70;;;5.10;93.20;;;;;;5051821;28;20047;-74
2023/01/24 03:03:09;;;;;;;21.58;14.23;;;5.10;92.80;;;;;;5052816;28;20036;-74
2023/01/24 03:08:32;;;;;;;21.42;14.15;;;5.30;93.70;;;;;;5044246;28;21072;-73
2023/01/24 03:10:59;;;;;;;28.77;19.08;;;5.20;94.60;;;;;;5050060;28;20467;-75
2023/01/24 03:35:21;;;;;;;29.25;20.02;;;5.10;93.40;;;;;;5050106;28;20774;-75
2023/01/24 03:40:31;;;;;;;28.73;20.48;;;5.10;94.00;;;;;;5049434;28;20060;-75
2023/01/24 03:42:56;;;;;;;25.40;17.73;;;5.10;93.40;;;;;;5050352;28;20494;-74
2023/01/24 03:45:25;;;;;;;26.60;18.83;;;5.10;93.20;;;;;;5050043;28;20044;-74
2023/01/24 03:48:03;;;;;;;31.17;21.98;;;5.00;93.00;;;;;;5049548;28;20072;-75
2023/01/24 03:53:17;;;;;;;28.38;18.92;;;5.10;92.80;;;;;;5049300;28;20043;-74
2023/01/24 03:55:43;;;;;;;23.55;15.23;;;5.20;94.20;;;;;;5050219;28;20033;-74
2023/01/24 03:58:10;;;;;;;28.10;20.55;;;5.20;94.60;;;;;;5049318;28;20086;-75
2023/01/24 04:00:37;;;;;;;29.73;20.77;;;5.20;94.80;;;;;;5050991;28;20052;-75
2023/01/24 04:03:02;;;;;;;25.58;17.80;;;5.10;94.00;;;;;;5045882;28;20029;-75
2023/01/24 04:05:28;;;;;;;33.25;22.73;;;5.10;93.70;;;;;;5049742;28;20070;-75
2023/01/24 04:07:55;;;;;;;30.45;21.55;;;5.00;93.40;;;;;;5047847;28;20503;-75
2023/01/24 04:10:21;;;;;;;32.63;22.33;;;5.10;93.00;;;;;;5049131;28;20025;-75
2023/01/24 04:12:47;;;;;;;28.63;19.38;;;5.20;92.80;;;;;;5049765;28;20021;-75
2023/01/24 04:15:21;;;;;;;32.45;21.38;;;5.20;92.50;;;;;;5049661;28;20025;-75
2023/01/24 04:17:48;;;;;;;33.55;23.58;;;5.30;92.40;;;;;;5038920;28;20087;-74
2023/01/24 04:20:14;;;;;;;29.80;20.98;;;5.20;92.20;;;;;;5048788;28;20036;-75
2023/01/24 04:22:40;;;;;;;28.77;19.20;;;5.30;92.60;;;;;;5049126;28;20104;-75
2023/01/24 04:25:06;;;;;;;31.92;21.45;;;5.20;92.40;;;;;;5049187;28;20490;-75
2023/01/24 04:27:40;;;;;;;27.98;19.55;;;5.20;92.30;;;;;;5049506;28;20033;-74
2023/01/24 04:30:08;;;;;;;35.58;23.65;;;5.20;92.30;;;;;;5049229;28;20079;-75
2023/01/24 04:32:34;;;;;;;32.15;21.35;;;5.30;92.20;;;;;;5049047;28;20052;-74
2023/01/24 04:35:00;;;;;;;30.98;22.42;;;5.30;92.70;;;;;;5050063;28;20505;-74
2023/01/24 04:37:27;;;;;;;31.30;20.52;;;5.30;92.50;;;;;;5049239;28;20027;-74
2023/01/24 04:39:53;;;;;;;31.83;21.15;;;5.30;92.20;;;;;;5047010;28;20111;-74
2023/01/24 04:42:19;;;;;;;34.15;23.60;;;5.30;92.10;;;;;;5052630;28;20107;-75
2023/01/24 04:44:44;;;;;;;38.22;22.77;;;5.20;92.10;;;;;;5046425;28;20026;-75
2023/01/24 04:47:10;;;;;;;28.23;19.45;;;5.20;92.20;;;;;;5038559;28;20561;-74
2023/01/24 04:49:35;;;;;;;32.00;21.92;;;5.10;92.30;;;;;;5047843;28;20108;-74
2023/01/24 04:52:01;;;;;;;31.33;19.73;;;5.20;92.30;;;;;;5046705;28;20017;-73
2023/01/24 04:54:27;;;;;;;27.33;19.00;;;5.20;92.30;;;;;;5042032;28;20041;-74
2023/01/24 04:56:52;;;;;;;28.65;19.45;;;5.20;92.50;;;;;;5041741;28;20021;-73
2023/01/24 04:59:18;;;;;;;30.02;19.77;;;5.10;92.60;;;;;;5048871;28;20025;-75
2023/01/24 05:01:43;;;;;;;28.30;19.55;;;5.10;92.60;;;;;;5053960;28;20025;-75
2023/01/24 05:04:09;;;;;;;31.15;21.13;;;5.00;92.90;;;;;;5048357;28;20013;-75
2023/01/24 05:06:35;;;;;;;32.70;22.35;;;4.90;93.50;;;;;;5047452;28;20544;-75
2023/01/24 05:09:01;;;;;;;30.17;20.85;;;4.80;93.20;;;;;;5047769;28;20057;-75
2023/01/24 05:11:27;;;;;;;31.45;21.55;;;4.80;93.00;;;;;;5035785;28;20079;-75
2023/01/24 05:13:53;;;;;;;36.28;25.63;;;4.70;92.90;;;;;;5047794;28;20474;-75
2023/01/24 05:16:18;;;;;;;35.42;23.08;;;4.70;93.10;;;;;;5046368;28;20029;-75
2023/01/24 05:18:45;;;;;;;30.67;20.13;;;4.80;93.30;;;;;;5045946;28;20025;-74
2023/01/24 05:21:13;;;;;;;35.25;25.48;;;4.80;93.40;;;;;;5049048;28;20052;-74
2023/01/24 05:23:38;;;;;;;30.00;20.08;;;4.80;93.30;;;;;;5048039;28;20021;-74
2023/01/24 05:26:05;;;;;;;23.83;14.93;;;4.80;93.10;;;;;;5048476;28;20560;-75
2023/01/24 05:28:31;;;;;;;27.42;18.42;;;4.80;93.60;;;;;;5046501;28;20104;-75
2023/01/24 05:31:01;;;;;;;32.53;22.05;;;4.90;93.60;;;;;;5048859;28;20029;-75
2023/01/24 05:33:27;;;;;;;;;;;4.90;93.60;;;;;;5046111;28;20778;-74
2023/01/24 05:36:01;;;;;;;34.67;22.08;;;5.00;93.90;;;;;;5056368;28;19958;-75
2023/01/24 05:38:26;;;;;;;23.20;14.52;;;5.00;94.50;;;;;;5037761;28;20131;-75
2023/01/24 05:40:52;;;;;;;31.17;20.50;;;4.90;94.70;;;;;;5047883;28;20099;-75
2023/01/24 05:43:18;;;;;;;33.67;22.30;;;5.00;95.50;;;;;;5048120;28;20080;-76
2023/01/24 05:45:44;;;;;;;36.97;25.25;;;4.90;95.30;;;;;;5047599;28;20021;-74
2023/01/24 05:48:10;;;;;;;29.45;19.23;;;4.90;94.70;;;;;;5048034;28;20040;-75
2023/01/24 05:50:36;;;;;;;37.25;24.40;;;4.80;94.10;;;;;;5048675;28;20025;-74
2023/01/24 05:53:03;;;;;;;32.05;21.38;;;4.80;94.00;;;;;;5048090;28;20478;-75
2023/01/24 05:55:28;;;;;;;32.40;21.35;;;4.80;93.70;;;;;;5047387;28;20025;-75
2023/01/24 05:57:54;;;;;;;18.60;12.50;;;4.80;93.50;;;;;;5046694;28;20142;-75
2023/01/24 06:00:20;;;;;;;28.13;18.63;;;4.80;94.50;;;;;;5046521;28;20048;-74
2023/01/24 06:02:45;;;;;;;34.13;23.02;;;4.80;94.50;;;;;;5043870;28;20060;-75
2023/01/24 06:05:11;;;;;;;33.03;21.63;;;4.80;94.20;;;;;;5041928;28;20021;-73
2023/01/24 06:07:37;;;;;;;37.00;24.83;;;4.90;93.80;;;;;;5052157;28;20047;-75
2023/01/24 06:10:03;;;;;;;15.45;10.15;;;5.00;94.10;;;;;;5038261;28;20021;-74
2023/01/24 06:12:28;;;;;;;32.20;21.80;;;5.10;95.70;;;;;;5047055;28;20028;-75
2023/01/24 06:14:54;;;;;;;33.15;22.45;;;5.00;94.70;;;;;;5046169;28;20022;-75
2023/01/24 06:17:19;;;;;;;33.85;20.95;;;5.10;93.90;;;;;;5051415;28;20014;-75
2023/01/24 06:19:45;;;;;;;26.35;16.83;;;5.10;93.80;;;;;;5036189;28;20021;-74
2023/01/24 06:22:51;;;;;;;26.75;19.08;;;5.20;96.00;;;;;;5048053;28;20021;-74
2023/01/24 06:25:20;;;;;;;30.08;19.13;;;5.10;95.70;;;;;;5064970;28;20048;-74
2023/01/24 06:27:47;;;;;;;33.58;21.98;;;5.00;95.20;;;;;;5063984;28;20043;-74
2023/01/24 06:30:14;;;;;;;28.30;19.35;;;5.00;94.80;;;;;;5056325;28;20103;-75
2023/01/24 06:32:45;;;;;;;38.17;24.33;;;5.10;94.60;;;;;;5046816;28;20094;-75
2023/01/24 06:35:35;;;;;;;34.55;21.20;;;5.10;94.10;;;;;;5046390;28;20021;-74
2023/01/24 06:38:02;;;;;;;29.67;18.75;;;5.20;93.50;;;;;;5041790;28;20878;-75
2023/01/24 06:40:27;;;;;;;34.47;23.30;;;5.20;93.30;;;;;;5047521;28;20390;-74
2023/01/24 06:42:54;;;;;;;32.88;21.52;;;5.30;93.10;;;;;;5045905;28;20018;-75
2023/01/24 06:45:20;;;;;;;30.10;20.27;;;5.30;94.20;;;;;;5047816;28;20039;-75
2023/01/24 06:47:46;;;;;;;31.58;21.95;;;5.30;93.90;;;;;;5050452;28;20159;-74
2023/01/24 06:50:19;;;;;;;34.60;23.35;;;5.30;93.90;;;;;;5051129;28;20099;-75
2023/01/24 06:52:46;;;;;;;29.15;17.83;;;5.30;94.90;;;;;;5046309;28;20021;-74
2023/01/24 06:55:13;;;;;;;32.30;23.05;;;5.20;94.90;;;;;;5058760;28;20107;-75
2023/01/24 06:57:39;;;;;;;33.60;22.88;;;5.20;95.20;;;;;;5050702;28;20021;-75
2023/01/24 07:00:05;;;;;;;26.05;16.63;;;5.10;95.00;;;;;;5050868;28;20082;-74
2023/01/24 07:02:31;;;;;;;31.90;21.30;;;5.00;95.60;;;;;;5050036;28;20486;-74
2023/01/24 07:04:57;;;;;;;33.67;23.42;;;5.00;96.10;;;;;;5049921;28;20025;-75
2023/01/24 07:07:22;;;;;;;31.52;22.02;;;4.90;95.50;;;;;;5049258;28;20040;-74
2023/01/24 07:09:48;;;;;;;30.75;20.75;;;4.90;95.40;;;;;;5046801;28;20021;-74
2023/01/24 07:12:14;;;;;;;31.30;21.67;;;4.80;95.70;;;;;;5050895;28;20123;-74
2023/01/24 07:14:39;;;;;;;31.88;19.85;;;4.80;94.70;;;;;;5047650;28;20037;-75
2023/01/24 07:17:05;;;;;;;33.60;21.63;;;4.80;94.80;;;;;;5050303;28;20399;-74
2023/01/24 07:19:31;;;;;;;37.13;25.20;;;4.80;94.70;;;;;;5050538;28;20029;-74
2023/01/24 07:21:57;;;;;;;35.67;22.35;;;4.80;94.30;;;;;;5049766;28;20502;-74
2023/01/24 07:24:26;;;;;;;32.75;22.20;;;4.80;94.00;;;;;;5049923;28;20094;-75
2023/01/24 07:26:53;;;;;;;35.72;22.60;;;4.80;93.80;;;;;;5049656;28;20684;-74
2023/01/24 07:29:19;;;;;;;35.53;24.17;;;4.80;94.00;;;;;;5050446;28;20049;-75
2023/01/24 07:31:45;;;;;;;36.25;25.33;;;4.80;93.70;;;;;;5047206;28;20021;-75
2023/01/24 07:34:11;;;;;;;38.97;26.98;;;4.80;93.50;;;;;;5048508;28;20025;-74
2023/01/24 07:36:36;;;;;;;33.30;22.65;;;4.80;93.20;;;;;;5047412;28;20645;-74
2023/01/24 07:39:02;;;;;;;41.28;26.38;;;4.70;93.20;;;;;;5047307;28;20013;-75
2023/01/24 07:41:28;;;;;;;37.20;24.98;;;4.80;93.80;;;;;;5048139;28;20565;-75
2023/01/24 07:43:54;;;;;;;36.33;23.83;;;4.70;93.90;;;;;;5047564;28;20021;-74
2023/01/24 07:46:20;;;;;;;36.20;25.98;;;4.70;93.40;;;;;;5039979;28;20040;-74
2023/01/24 07:48:46;;;;;;;25.90;17.60;;;4.70;93.70;;;;;;5039492;28;20033;-74
2023/01/24 07:51:12;;;;;;;21.92;13.95;;;4.70;95.10;;;;;;5048673;28;20103;-75
2023/01/24 07:53:37;;;;;;;30.35;20.00;;;4.70;96.10;;;;;;5037550;28;20402;-75
2023/01/24 07:56:03;;;;;;;37.15;26.58;;;4.70;96.20;;;;;;5055084;28;20040;-75
2023/01/24 07:58:30;;;;;;;37.20;24.80;;;4.70;95.70;;;;;;5051371;28;20033;-75
2023/01/24 08:00:56;;;;;;;39.72;26.75;;;4.70;94.90;;;;;;5048508;28;20031;-74
2023/01/24 08:03:21;;;;;;;36.53;25.45;;;4.70;94.30;;;;;;5048553;28;20451;-75
2023/01/24 08:05:47;;;;;;;32.95;23.00;;;4.70;94.00;;;;;;5046215;28;20154;-75
2023/01/24 08:08:14;;;;;;;36.45;24.83;;;4.80;93.70;;;;;;5049702;28;20021;-75
2023/01/24 08:10:39;;;;;;;36.53;26.80;;;4.80;93.50;;;;;;5048662;28;20035;-75
2023/01/24 08:13:05;;;;;;;30.25;20.63;;;4.80;93.40;;;;;;5048433;28;20096;-75
2023/01/24 08:15:30;;;;;;;39.17;25.63;;;4.70;93.30;;;;;;5049157;28;20100;-74
2023/01/24 08:17:56;;;;;;;35.28;25.25;;;4.70;94.10;;;;;;5046405;28;20321;-74
2023/01/24 08:20:22;;;;;;;34.00;23.67;;;4.70;93.70;;;;;;5048639;28;20342;-75
2023/01/24 08:22:47;;;;;;;36.03;24.33;;;4.60;93.40;;;;;;5048865;28;20029;-74
2023/01/24 08:25:13;;;;;;;34.92;24.80;;;4.70;93.40;;;;;;5045098;28;20052;-74
2023/01/24 08:27:42;;;;;;;38.55;27.10;;;4.80;93.80;;;;;;5047773;28;20052;-73
2023/01/24 08:30:10;;;;;;;37.28;25.58;;;4.80;93.40;;;;;;5047172;28;20036;-74
2023/01/24 08:32:37;;;;;;;39.70;25.42;;;4.80;93.10;;;;;;5045767;28;20386;-75
2023/01/24 08:35:04;;;;;;;32.08;22.92;;;4.90;93.60;;;;;;5045834;28;20024;-74
2023/01/24 08:37:29;;;;;;;36.97;24.98;;;4.90;93.20;;;;;;5031459;28;20106;-74
2023/01/24 08:39:56;;;;;;;38.47;26.50;;;4.90;93.20;;;;;;5040878;28;20447;-74
2023/01/24 08:42:23;;;;;;;28.73;19.58;;;4.90;92.90;;;;;;5048133;28;20031;-75
2023/01/24 08:44:49;;;;;;;31.83;20.27;;;4.90;93.20;;;;;;5042968;28;20025;-75
2023/01/24 08:47:15;;;;;;;33.08;23.00;;;5.00;93.50;;;;;;5044027;28;20581;-74
2023/01/24 08:49:41;;;;;;;35.05;24.83;;;5.00;93.30;;;;;;5048105;28;20092;-73
2023/01/24 08:52:07;;;;;;;33.15;23.45;;;5.00;92.90;;;;;;5044336;28;20035;-74
2023/01/24 08:54:33;;;;;;;29.83;20.70;;;5.00;92.80;;;;;;5036548;28;20036;-75
2023/01/24 08:56:59;;;;;;;28.23;20.90;;;5.00;93.00;;;;;;5050289;28;20098;-75
2023/01/24 08:59:25;;;;;;;26.75;18.17;;;5.10;94.60;;;;;;5048325;28;20593;-75
2023/01/24 09:01:50;;;;;;;34.30;21.70;;;5.20;95.70;;;;;;5043938;28;20096;-75
2023/01/24 09:04:16;;;;;;;33.03;23.40;;;5.20;95.80;;;;;;5048030;28;20166;-74
2023/01/24 09:06:42;;;;;;;30.00;21.48;;;5.30;94.90;;;;;;5042227;28;20118;-75
2023/01/24 09:09:07;;;;;;;33.65;22.42;;;5.30;94.70;;;;;;5039267;28;20032;-74
2023/01/24 09:11:33;;;;;;;29.42;21.27;;;5.30;94.70;;;;;;5047361;28;20106;-74
2023/01/24 09:13:59;;;;;;;31.75;21.17;;;5.30;94.20;;;;;;5047549;28;20426;-75
2023/01/24 09:16:27;;;;;;;27.63;17.02;;;5.20;93.70;;;;;;5047703;28;20029;-75
2023/01/24 09:18:53;;;;;;;27.85;18.65;;;5.20;93.40;;;;;;5047416;28;20090;-74
2023/01/24 09:21:19;;;;;;;32.20;22.02;;;5.20;94.90;;;;;;5047152;28;20104;-75
2023/01/24 09:23:45;;;;;;;23.42;17.33;;;5.20;95.30;;;;;;5034884;28;20045;-75
2023/01/24 09:26:11;;;;;;;30.70;22.08;;;5.20;95.70;;;;;;5042073;28;20067;-75
2023/01/24 09:28:39;;;;;;;23.05;16.58;;;5.10;94.90;;;;;;5045610;28;20069;-75
2023/01/24 09:31:08;;;;;;;29.55;18.50;;;5.10;95.00;;;;;;5037072;28;20096;-75
2023/01/24 09:33:34;;;;;;;32.58;22.33;;;5.00;94.50;;;;;;5041461;28;20399;-75
2023/01/24 09:36:02;;;;;;;32.67;21.50;;;5.00;94.00;;;;;;5051869;28;20033;-74
2023/01/24 09:38:32;;;;;;;25.95;18.13;;;4.90;94.10;;;;;;5047510;28;20063;-75
2023/01/24 09:41:21;;;;;;;29.40;21.13;;;4.90;94.00;;;;;;5044768;28;20021;-75
2023/01/24 09:43:51;;;;;;;31.17;21.93;;;5.00;94.20;;;;;;5031145;28;20018;-75
2023/01/24 09:46:35;;;;;;;30.23;21.23;;;5.00;94.30;;;;;;5047425;28;20171;-75
2023/01/24 09:49:25;;;;;;;30.75;21.70;;;5.00;93.80;;;;;;5043283;28;20723;-75
2023/01/24 09:51:52;;;;;;;;;;;5.00;93.40;;;;;;5049411;28;20049;-74
2023/01/24 09:54:53;;;;;;;32.28;21.58;;;5.00;93.00;;;;;;5047148;28;19912;-76
2023/01/24 09:57:32;;;;;;;32.60;20.85;;;4.90;92.90;;;;;;5056029;28;20056;-75
2023/01/24 10:00:04;;;;;;;35.85;25.35;;;5.00;92.90;;;;;;5039397;28;20037;-75
2023/01/24 10:02:30;;;;;;;32.13;22.35;;;5.10;93.00;;;;;;5037273;28;20032;-74
2023/01/24 10:04:55;;;;;;;29.23;20.83;;;5.00;92.60;;;;;;5046286;28;20036;-74
2023/01/24 10:07:46;;;;;;;31.45;22.20;;;5.10;94.00;;;;;;5041510;28;20029;-75
2023/01/24 10:10:32;;;;;;;31.67;21.80;;;5.10;94.00;;;;;;5044930;28;20025;-74
2023/01/24 10:13:16;;;;;;;32.85;22.23;;;5.00;93.30;;;;;;5046044;28;20538;-74
2023/01/24 10:16:18;;;;;;;30.77;21.27;;;5.00;92.90;;;;;;5038742;28;20032;-74
2023/01/24 10:19:03;;;;;;;30.17;20.05;;;4.90;93.40;;;;;;5044007;28;20053;-75
2023/01/24 10:21:40;;;;;;;28.73;19.50;;;4.90;92.90;;;;;;5044159;28;20029;-74
2023/01/24 10:24:13;;;;;;;31.92;22.63;;;4.90;93.70;;;;;;5042702;28;20083;-75
2023/01/24 10:26:48;;;;;;;33.38;23.23;;;4.80;93.00;;;;;;5049212;28;20168;-75
2023/01/24 10:29:26;;;;;;;32.00;22.00;;;4.80;92.80;;;;;;5050103;28;20048;-75
2023/01/24 10:32:05;;;;;;;31.40;22.55;;;4.80;93.50;;;;;;5038466;28;20147;-75
2023/01/24 10:34:43;;;;;;;29.08;20.63;;;4.80;92.90;;;;;;5049301;28;20021;-75
2023/01/24 10:37:25;;;;;;;30.15;21.27;;;4.80;92.80;;;;;;5049903;28;20390;-75
2023/01/24 10:39:51;;;;;;;27.65;19.88;;;4.80;92.60;;;;;;5048502;28;20169;-75
2023/01/24 10:42:28;;;;;;;28.30;19.92;;;4.80;92.50;;;;;;5049535;28;20121;-75
2023/01/24 10:44:57;;;;;;;27.52;18.98;;;4.70;92.80;;;;;;5048428;28;20025;-75
2023/01/24 10:47:45;;;;;;;32.53;22.38;;;4.80;94.20;;;;;;5045601;28;20042;-75
2023/01/24 10:50:17;;;;;;;26.23;18.75;;;4.80;93.50;;;;;;5044289;28;20029;-74
2023/01/24 10:52:44;;;;;;;24.20;16.50;;;5.00;93.30;;;;;;5038795;28;20103;-74
2023/01/24 10:55:34;;;;;;;29.60;22.13;;;5.10;93.60;;;;;;5047508;28;20483;-74
2023/01/24 10:58:03;;;;;;;32.72;23.13;;;5.10;93.40;;;;;;5049087;28;20135;-75
2023/01/24 11:00:42;;;;;;;27.13;18.25;;;5.20;93.30;;;;;;5049119;28;20028;-74
2023/01/24 11:03:23;;;;;;;23.45;15.98;;;5.20;93.90;;;;;;5054005;28;20091;-75
2023/01/24 11:05:51;;;;;;;31.08;22.85;;;5.30;94.60;;;;;;5049174;28;20034;-75
2023/01/24 11:08:23;;;;;;;29.13;20.25;;;5.30;93.50;;;;;;5047402;28;20051;-75
2023/01/24 11:10:54;;;;;;;30.45;22.25;;;5.30;93.10;;;;;;5048312;28;20783;-75
2023/01/24 11:13:23;;;;;;;18.52;12.88;;;5.30;92.50;;;;;;5040276;28;20075;-75
2023/01/24 11:16:01;;;;;;;29.05;19.90;;;5.40;94.10;;;;;;5051362;28;20928;-74
2023/01/24 11:18:27;;;;;;;25.38;18.35;;;5.40;93.70;;;;;;5049992;28;20021;-76
2023/01/24 11:21:15;;;;;;;30.25;20.58;;;5.40;92.80;;;;;;5049087;28;20044;-74
2023/01/24 11:23:41;;;;;;;26.65;20.27;;;5.40;92.20;;;;;;5046954;28;20029;-75
2023/01/24 11:26:24;;;;;;;25.58;18.13;;;5.40;91.90;;;;;;5058236;28;20047;-74
2023/01/24 11:28:58;;;;;;;29.33;20.65;;;5.40;91.90;;;;;;5038989;28;20035;-76
2023/01/24 11:31:39;;;;;;;29.67;22.30;;;5.50;91.80;;;;;;5048581;28;20029;-75
2023/01/24 11:34:34;;;;;;;23.77;16.42;;;5.40;91.10;;;;;;5049681;28;20029;-75
2023/01/24 11:37:13;;;;;;;24.63;17.25;;;5.50;92.80;;;;;;5045610;28;20494;-77
2023/01/24 11:39:45;;;;;;;26.85;19.45;;;5.50;92.10;;;;;;5045323;28;20402;-76
2023/01/24 11:42:17;;;;;;;25.63;19.20;;;5.40;91.20;;;;;;5045217;28;20495;-77
2023/01/24 11:45:18;;;;;;;25.65;19.33;;;5.40;91.10;;;;;;5047926;28;20025;-77
2023/01/24 11:48:00;;;;;;;24.75;16.25;;;5.40;91.20;;;;;;5067647;28;20499;-76
2023/01/24 11:51:03;;;;;;;25.10;18.23;;;5.40;91.00;;;;;;5052621;28;20013;-77
2023/01/24 11:53:45;;;;;;;24.75;17.65;;;5.50;91.00;;;;;;5047730;28;20082;-78
2023/01/24 11:56:34;;;;;;;26.42;19.15;;;5.40;90.60;;;;;;5048310;28;20024;-77
2023/01/24 11:59:21;;;;;;;21.98;16.77;;;5.40;90.60;;;;;;5047826;28;20078;-78
2023/01/24 12:01:50;;;;;;;24.25;16.27;;;5.40;91.00;;;;;;5046015;28;20025;-80
2023/01/24 12:04:35;;;;;;;27.23;17.92;;;5.40;90.60;;;;;;5047710;28;20025;-79
2023/01/24 12:07:16;;;;;;;22.80;16.92;;;5.30;90.60;;;;;;5048868;28;20048;-78
2023/01/24 12:09:57;;;;;;;24.33;17.20;;;5.40;90.50;;;;;;5049206;28;20075;-78
2023/01/24 12:12:49;;;;;;;24.15;17.65;;;5.30;90.40;;;;;;5044221;28;20075;-77
2023/01/24 12:15:15;;;;;;;22.42;15.75;;;5.30;90.40;;;;;;5036448;28;20115;-78
2023/01/24 12:17:49;;;;;;;24.08;16.92;;;5.20;90.50;;;;;;5045056;28;20096;-78
2023/01/24 12:20:38;;;;;;;23.60;17.15;;;5.20;91.00;;;;;;5050268;28;20057;-77
2023/01/24 12:23:29;;;;;;;23.65;17.25;;;5.20;90.60;;;;;;5047737;28;20063;-77
2023/01/24 12:26:02;;;;;;;23.50;17.70;;;5.20;90.90;;;;;;5034775;28;20073;-77
2023/01/24 12:28:44;;;;;;;24.80;17.50;;;5.20;90.60;;;;;;5047923;28;20053;-77
2023/01/24 12:31:15;;;;;;;27.45;18.23;;;5.20;90.30;;;;;;5051277;28;20478;-76
2023/01/24 12:34:13;;;;;;;25.70;17.23;;;5.20;90.50;;;;;;5050254;28;20472;-73
2023/01/24 12:36:45;;;;;;;24.58;17.85;;;5.20;90.60;;;;;;5047946;28;20458;-74
2023/01/24 12:39:16;;;;;;;24.58;16.88;;;5.30;90.70;;;;;;5042488;28;20029;-74
2023/01/24 12:41:46;;;;;;;23.73;17.10;;;5.30;90.50;;;;;;5038091;28;20090;-74
2023/01/24 12:44:29;;;;;;;20.13;14.88;;;5.40;90.80;;;;;;5047808;28;20029;-75
2023/01/24 12:47:20;;;;;;;23.60;17.23;;;5.40;90.80;;;;;;5047782;28;20057;-74
2023/01/24 12:50:02;;;;;;;19.98;15.45;;;5.20;90.50;;;;;;5054524;28;20036;-77
2023/01/24 12:52:33;;;;;;;24.05;17.95;;;5.20;90.20;;;;;;5035372;28;20033;-77
2023/01/24 12:55:10;;;;;;;23.58;16.85;;;5.20;90.50;;;;;;5023201;28;20032;-75
2023/01/24 12:58:15;;;;;;;21.50;16.00;;;5.10;90.30;;;;;;5050368;28;20025;-78
2023/01/24 13:01:07;;;;;;;24.90;16.65;;;5.10;90.50;;;;;;5039349;28;20044;-77
2023/01/24 13:03:54;;;;;;;21.80;16.27;;;5.10;90.60;;;;;;5050934;28;20032;-74
2023/01/24 13:06:35;;;;;;;24.58;16.70;;;5.00;91.00;;;;;;5043406;28;20435;-76
2023/01/24 13:09:09;;;;;;;23.67;17.15;;;5.00;90.60;;;;;;5041435;28;20035;-74
2023/01/24 13:11:45;;;;;;;21.45;16.98;;;5.00;90.60;;;;;;5047085;28;20025;-73
2023/01/24 13:14:36;;;;;;;20.15;15.23;;;5.00;90.60;;;;;;5047315;28;20033;-74
2023/01/24 13:17:04;;;;;;;25.30;17.45;;;5.00;90.90;;;;;;5035046;28;20725;-78
2023/01/24 13:19:51;;;;;;;24.70;17.50;;;5.20;90.70;;;;;;5051543;28;20117;-74
2023/01/24 13:22:35;;;;;;;19.58;14.20;;;5.10;90.70;;;;;;5052031;28;20021;-76
2023/01/24 13:25:28;;;;;;;23.52;16.33;;;5.20;90.90;;;;;;5045914;28;20045;-76
2023/01/24 13:28:03;;;;;;;23.60;16.00;;;5.30;91.10;;;;;;5039563;28;20049;-75
2023/01/24 13:30:29;;;;;;;21.27;15.10;;;5.40;90.80;;;;;;5045568;28;20033;-77
2023/01/24 13:33:00;;;;;;;25.95;17.35;;;5.30;90.90;;;;;;5040840;28;20021;-76